createdAt,value
2023-07-03T00:01:42.369Z,51.14
2023-07-03T00:04:09.021Z,51.26
2023-07-03T00:06:35.214Z,51.31
2023-07-03T00:09:01.430Z,51.12
2023-07-03T00:11:28.155Z,51.19
2023-07-03T00:13:54.356Z,51.25
2023-07-03T00:16:20.534Z,51.21
2023-07-03T00:18:46.770Z,51.26
2023-07-03T00:21:13.049Z,51.14
2023-07-03T00:23:39.177Z,51.22
2023-07-03T00:26:05.849Z,50.98
2023-07-03T00:28:32.019Z,51.23
2023-07-03T00:30:58.234Z,51.15
2023-07-03T00:33:27.444Z,51.24
2023-07-03T00:35:53.788Z,51.16
2023-07-03T00:38:20.103Z,51.08
2023-07-03T00:40:46.260Z,51.06
2023-07-03T00:43:12.429Z,51.14
2023-07-03T00:45:38.584Z,51.28
2023-07-03T00:48:04.881Z,51.07
2023-07-03T00:50:31.152Z,51.23
2023-07-03T00:52:57.337Z,51.09
2023-07-03T00:55:23.545Z,51.13
2023-07-03T00:57:49.715Z,50.98
2023-07-03T01:00:15.921Z,51.07
2023-07-03T01:02:42.441Z,51.23
2023-07-03T01:05:08.885Z,51.00
2023-07-03T01:07:35.162Z,51.21
2023-07-03T01:10:01.563Z,51.18
2023-07-03T01:12:27.822Z,50.97
2023-07-03T01:14:54.103Z,50.93
2023-07-03T01:17:20.341Z,51.02
2023-07-03T01:19:49.682Z,51.05
2023-07-03T01:22:16.025Z,51.12
2023-07-03T01:24:42.239Z,50.85
2023-07-03T01:27:08.454Z,51.06
2023-07-03T01:29:34.649Z,51.18
2023-07-03T01:32:00.832Z,50.92
2023-07-03T01:34:26.965Z,51.11
2023-07-03T01:36:53.096Z,50.95
2023-07-03T01:39:19.286Z,50.97
2023-07-03T01:41:45.432Z,50.91
2023-07-03T01:44:11.570Z,50.95
2023-07-03T01:46:37.794Z,51.07
2023-07-03T01:49:04.025Z,50.78
2023-07-03T01:51:30.219Z,50.75
2023-07-03T01:53:56.384Z,50.80
2023-07-03T01:56:22.535Z,50.98
2023-07-03T01:58:48.712Z,50.75
2023-07-03T02:01:15.071Z,50.79
2023-07-03T02:03:41.422Z,50.82
2023-07-03T02:06:07.722Z,50.96
2023-07-03T02:08:33.912Z,50.83
2023-07-03T02:11:00.112Z,50.95
2023-07-03T02:13:26.269Z,51.00
2023-07-03T02:15:52.633Z,50.95
2023-07-03T02:18:19.220Z,50.82
2023-07-03T02:20:45.467Z,50.86
2023-07-03T02:23:11.651Z,50.91
2023-07-03T02:25:37.805Z,50.88
2023-07-03T02:28:03.984Z,50.97
2023-07-03T02:30:30.667Z,50.78
2023-07-03T02:32:56.860Z,50.85
2023-07-03T02:35:23.115Z,51.01
2023-07-03T02:37:49.284Z,50.82
2023-07-03T02:40:15.442Z,50.90
2023-07-03T02:42:41.603Z,50.75
2023-07-03T02:45:07.771Z,50.89
2023-07-03T02:47:34.015Z,50.98
2023-07-03T02:50:00.377Z,50.74
2023-07-03T02:52:26.594Z,50.81
2023-07-03T02:54:52.737Z,50.89
2023-07-03T02:57:18.886Z,50.85
2023-07-03T02:59:45.042Z,50.83
2023-07-03T03:02:11.189Z,50.91
2023-07-03T03:04:37.383Z,50.82
2023-07-03T03:07:03.542Z,50.91
2023-07-03T03:09:29.776Z,50.79
2023-07-03T03:11:55.939Z,50.89
2023-07-03T03:14:22.105Z,50.92
2023-07-03T03:16:48.290Z,50.89
2023-07-03T03:19:14.425Z,50.81
2023-07-03T03:21:40.580Z,50.86
2023-07-03T03:24:06.729Z,50.78
2023-07-03T03:26:32.864Z,51.01
2023-07-03T03:28:59.026Z,50.90
2023-07-03T03:31:25.280Z,50.83
2023-07-03T03:33:51.553Z,50.97
2023-07-03T03:36:17.770Z,50.87
2023-07-03T03:38:43.916Z,50.91
2023-07-03T03:41:10.062Z,50.73
2023-07-03T03:43:36.229Z,50.91
2023-07-03T03:46:02.387Z,50.73
2023-07-03T03:48:28.670Z,50.85
2023-07-03T03:50:54.951Z,50.78
2023-07-03T03:53:21.107Z,50.75
2023-07-03T03:55:47.245Z,50.72
2023-07-03T03:58:13.410Z,50.77
2023-07-03T04:00:39.561Z,50.86
2023-07-03T04:03:05.720Z,50.94
2023-07-03T04:05:31.917Z,50.83
2023-07-03T04:07:58.127Z,50.88
2023-07-03T04:10:24.267Z,50.83
2023-07-03T04:12:50.450Z,50.84
2023-07-03T04:15:16.630Z,50.70
2023-07-03T04:17:42.796Z,50.88
2023-07-03T04:20:09.229Z,50.97
2023-07-03T04:22:35.373Z,50.75
2023-07-03T04:25:01.527Z,50.81
2023-07-03T04:27:27.717Z,50.88
2023-07-03T04:29:53.874Z,50.79
2023-07-03T04:32:20.054Z,50.90
2023-07-03T04:34:46.260Z,50.89
2023-07-03T04:37:12.418Z,50.85
2023-07-03T04:39:38.560Z,50.82
2023-07-03T04:42:04.742Z,50.76
2023-07-03T04:44:30.978Z,50.77
2023-07-03T04:46:57.189Z,50.71
2023-07-03T04:49:23.341Z,50.80
2023-07-03T04:51:49.467Z,50.75
2023-07-03T04:54:15.634Z,50.70
2023-07-03T04:56:41.794Z,50.74
2023-07-03T04:59:07.935Z,50.90
2023-07-03T05:01:34.186Z,50.77
2023-07-03T05:04:00.436Z,50.80
2023-07-03T05:06:26.619Z,50.84
2023-07-03T05:08:52.790Z,50.80
2023-07-03T05:11:18.961Z,50.75
2023-07-03T05:13:45.113Z,50.56
2023-07-03T05:16:11.321Z,50.93
2023-07-03T05:18:37.508Z,50.78
2023-07-03T05:21:03.634Z,50.94
2023-07-03T05:23:29.789Z,50.95
2023-07-03T05:25:56.510Z,50.98
2023-07-03T05:28:22.661Z,50.97
2023-07-03T05:30:50.281Z,50.82
2023-07-03T05:33:16.572Z,50.94
2023-07-03T05:35:50.140Z,50.90
2023-07-03T05:38:17.357Z,50.99
2023-07-03T05:40:43.505Z,51.01
2023-07-03T05:43:09.671Z,50.96
2023-07-03T05:45:35.950Z,51.01
2023-07-03T05:48:02.155Z,50.99
2023-07-03T05:50:28.307Z,50.96
2023-07-03T05:52:54.452Z,50.97
2023-07-03T05:55:20.620Z,50.97
2023-07-03T05:57:46.763Z,50.79
2023-07-03T06:00:12.916Z,51.04
2023-07-03T06:02:39.076Z,50.87
2023-07-03T06:05:05.295Z,50.90
2023-07-03T06:07:31.564Z,51.01
2023-07-03T06:09:57.712Z,50.78
2023-07-03T06:12:23.856Z,50.83
2023-07-03T06:14:50.006Z,50.79
2023-07-03T06:17:16.274Z,51.04
2023-07-03T06:19:42.458Z,50.90
2023-07-03T06:22:08.636Z,50.75
2023-07-03T06:24:34.802Z,50.74
2023-07-03T06:27:00.961Z,50.90
2023-07-03T06:29:27.164Z,50.74
2023-07-03T06:31:53.352Z,50.76
2023-07-03T06:34:19.541Z,50.79
2023-07-03T06:36:45.703Z,51.00
2023-07-03T06:39:11.844Z,51.03
2023-07-03T06:41:38.024Z,50.91
2023-07-03T06:44:04.203Z,50.99
2023-07-03T06:46:30.365Z,51.02
2023-07-03T06:48:56.536Z,50.97
2023-07-03T06:51:22.786Z,50.89
2023-07-03T06:53:48.927Z,50.92
2023-07-03T06:56:15.076Z,50.91
2023-07-03T06:58:41.255Z,51.06
2023-07-03T07:01:07.391Z,50.89
2023-07-03T07:03:33.664Z,50.98
2023-07-03T07:05:59.954Z,50.85
2023-07-03T07:08:26.203Z,50.88
2023-07-03T07:10:52.345Z,50.96
2023-07-03T07:13:19.106Z,50.83
2023-07-03T07:15:45.268Z,50.98
2023-07-03T07:18:11.437Z,50.94
2023-07-03T07:20:37.626Z,50.94
2023-07-03T07:23:03.765Z,50.86
2023-07-03T07:25:29.912Z,50.92
2023-07-03T07:27:56.074Z,50.76
2023-07-03T07:30:22.223Z,50.93
2023-07-03T07:32:48.397Z,50.87
2023-07-03T07:35:15.172Z,50.83
2023-07-03T07:37:41.332Z,50.92
2023-07-03T07:40:07.471Z,50.79
2023-07-03T07:42:33.661Z,50.80
2023-07-03T07:44:59.827Z,50.71
2023-07-03T07:47:26.053Z,51.10
2023-07-03T07:49:52.762Z,50.87
2023-07-03T07:52:18.945Z,50.84
2023-07-03T07:54:45.105Z,50.85
2023-07-03T07:57:11.292Z,50.89
2023-07-03T07:59:37.469Z,50.75
2023-07-03T08:02:03.723Z,50.84
2023-07-03T08:04:30.287Z,50.74
2023-07-03T08:06:56.491Z,50.83
2023-07-03T08:09:22.662Z,50.77
2023-07-03T08:11:48.822Z,50.87
2023-07-03T08:14:14.979Z,50.92
2023-07-03T08:16:41.204Z,50.77
2023-07-03T08:19:07.415Z,51.02
2023-07-03T08:21:33.571Z,50.91
2023-07-03T08:23:59.751Z,50.94
2023-07-03T08:26:25.913Z,50.96
2023-07-03T08:28:52.072Z,50.77
2023-07-03T08:31:18.286Z,50.88
2023-07-03T08:33:44.538Z,50.86
2023-07-03T08:38:39.821Z,50.88
2023-07-03T08:41:06.001Z,50.92
2023-07-03T08:43:32.187Z,50.83
2023-07-03T08:45:58.447Z,50.89
2023-07-03T08:48:24.718Z,50.71
2023-07-03T08:50:50.878Z,50.89
2023-07-03T08:53:17.010Z,50.78
2023-07-03T08:55:43.391Z,50.92
2023-07-03T08:58:09.537Z,50.79
2023-07-03T09:00:35.690Z,50.88
2023-07-03T09:03:01.966Z,50.81
2023-07-03T09:05:28.208Z,50.89
2023-07-03T09:07:54.364Z,50.64
2023-07-03T09:10:20.555Z,50.75
2023-07-03T09:12:46.688Z,50.72
2023-07-03T09:15:12.875Z,50.86
2023-07-03T09:17:39.101Z,50.83
2023-07-03T09:20:05.253Z,50.79
2023-07-03T09:22:31.420Z,50.89
2023-07-03T09:24:57.614Z,50.72
2023-07-03T09:27:23.781Z,50.70
2023-07-03T09:29:49.939Z,50.82
2023-07-03T09:32:16.700Z,50.72
2023-07-03T09:34:42.902Z,50.85
2023-07-03T09:37:09.054Z,50.85
2023-07-03T09:39:35.323Z,50.78
2023-07-03T09:42:01.457Z,50.70
2023-07-03T09:44:27.630Z,50.89
2023-07-03T09:46:53.802Z,50.84
2023-07-03T09:49:19.999Z,50.81
2023-07-03T09:51:47.100Z,50.74
2023-07-03T09:54:13.398Z,50.79
2023-07-03T09:56:39.562Z,50.83
2023-07-03T09:59:05.717Z,50.70
2023-07-03T10:04:01.100Z,50.85
2023-07-03T10:06:27.457Z,50.91
2023-07-03T10:11:22.744Z,50.91
2023-07-03T10:13:48.918Z,50.83
2023-07-03T10:16:15.101Z,50.74
2023-07-03T10:18:41.291Z,50.84
2023-07-03T10:21:07.460Z,50.89
2023-07-03T10:23:33.617Z,50.83
2023-07-03T10:25:59.798Z,50.91
2023-07-03T10:28:25.945Z,50.75
2023-07-03T10:30:52.109Z,50.92
2023-07-03T10:33:18.278Z,50.92
2023-07-03T10:35:44.476Z,50.73
2023-07-03T10:38:10.660Z,50.88
2023-07-03T10:40:36.832Z,50.88
2023-07-03T10:43:02.980Z,50.81
2023-07-03T10:45:29.162Z,50.80
2023-07-03T10:47:55.432Z,50.88
2023-07-03T10:50:21.637Z,50.99
2023-07-03T10:52:47.794Z,50.96
2023-07-03T10:55:14.050Z,50.74
2023-07-03T10:57:40.263Z,50.88
2023-07-03T11:00:06.513Z,50.92
2023-07-03T11:02:32.684Z,50.97
2023-07-03T11:04:58.866Z,50.95
2023-07-03T11:07:25.036Z,50.89
2023-07-03T11:09:51.185Z,50.90
2023-07-03T11:12:17.365Z,51.04
2023-07-03T11:14:43.547Z,50.89
2023-07-03T11:17:09.789Z,51.09
2023-07-03T11:24:34.067Z,51.02
2023-07-03T11:29:29.321Z,50.97
2023-07-03T11:31:55.575Z,51.03
2023-07-03T11:37:02.492Z,50.81
2023-07-03T11:44:28.988Z,50.97
2023-07-03T11:46:55.164Z,50.88
2023-07-03T11:49:21.334Z,50.89
2023-07-03T11:51:47.505Z,50.75
2023-07-03T11:54:13.649Z,50.69
2023-07-03T11:56:39.799Z,50.80
2023-07-03T11:59:05.955Z,50.66
2023-07-03T12:01:32.229Z,50.71
2023-07-03T12:03:59.068Z,50.65
2023-07-03T12:06:25.241Z,50.64
2023-07-03T12:08:51.387Z,50.63
2023-07-03T12:11:17.599Z,50.65
2023-07-03T12:13:43.926Z,50.67
2023-07-03T12:16:10.404Z,50.62
2023-07-03T12:18:36.794Z,50.53
2023-07-03T12:21:03.130Z,50.54
2023-07-03T12:23:29.294Z,50.50
2023-07-03T12:25:55.442Z,50.53
2023-07-03T12:28:21.632Z,50.54
2023-07-03T12:30:47.843Z,50.43
2023-07-03T12:33:14.004Z,50.43
2023-07-03T12:35:40.152Z,50.62
2023-07-03T12:38:06.293Z,50.51
2023-07-03T12:40:32.474Z,50.52
2023-07-03T12:42:58.662Z,50.60
2023-07-03T12:45:24.809Z,50.60
2023-07-03T12:47:51.847Z,50.59
2023-07-03T12:50:18.013Z,50.41
2023-07-03T12:52:44.191Z,50.44
2023-07-03T12:55:15.137Z,50.54
2023-07-03T12:57:41.685Z,50.39
2023-07-03T13:00:08.020Z,50.36
2023-07-03T13:02:34.310Z,50.35
2023-07-03T13:05:00.539Z,50.36
2023-07-03T13:07:26.819Z,50.22
2023-07-03T13:09:53.030Z,50.29
2023-07-03T13:12:19.221Z,50.21
2023-07-03T13:14:45.383Z,50.23
2023-07-03T13:17:11.552Z,50.36
2023-07-03T13:19:37.813Z,50.26
2023-07-03T13:22:03.979Z,50.43
2023-07-03T13:24:30.156Z,50.44
2023-07-03T13:26:56.312Z,50.36
2023-07-03T13:29:22.488Z,50.31
2023-07-03T13:31:52.807Z,50.40
2023-07-03T13:34:19.332Z,50.51
2023-07-03T13:36:45.547Z,50.41
2023-07-03T13:39:11.822Z,50.41
2023-07-03T13:41:37.959Z,50.40
2023-07-03T13:44:04.137Z,50.46
2023-07-03T13:46:30.350Z,50.54
2023-07-03T13:48:56.550Z,50.27
2023-07-03T13:51:22.711Z,50.44
2023-07-03T13:53:51.090Z,50.35
2023-07-03T13:56:19.747Z,50.52
2023-07-03T13:58:45.893Z,50.45
2023-07-03T14:01:25.424Z,50.65
2023-07-03T14:03:53.231Z,50.56
2023-07-03T14:06:19.468Z,50.55
2023-07-03T14:08:45.625Z,50.46
2023-07-03T14:11:11.778Z,50.64
2023-07-03T14:13:38.079Z,50.57
2023-07-03T14:16:04.211Z,50.62
2023-07-03T14:18:30.403Z,50.64
2023-07-03T14:21:10.524Z,50.46
2023-07-03T14:23:36.680Z,50.55
2023-07-03T14:26:02.850Z,50.37
2023-07-03T14:28:29.034Z,50.50
2023-07-03T14:30:55.197Z,50.40
2023-07-03T14:33:21.376Z,50.50
2023-07-03T14:35:47.773Z,50.47
2023-07-03T14:38:14.111Z,50.53
2023-07-03T14:40:40.281Z,50.42
2023-07-03T14:43:06.475Z,50.49
2023-07-03T14:45:32.615Z,50.36
2023-07-03T14:47:58.836Z,50.32
2023-07-03T14:50:26.021Z,50.28
2023-07-03T14:52:52.162Z,50.46
2023-07-03T14:55:18.298Z,50.40
2023-07-03T14:57:44.472Z,50.36
2023-07-03T15:00:10.662Z,50.25
2023-07-03T15:02:36.882Z,50.52
2023-07-03T15:05:03.100Z,50.37
2023-07-03T15:07:29.342Z,50.43
2023-07-03T15:09:55.511Z,50.26
2023-07-03T15:12:21.753Z,50.42
2023-07-03T15:14:47.941Z,50.37
2023-07-03T15:17:14.091Z,50.48
2023-07-03T15:19:40.332Z,50.38
2023-07-03T15:22:06.513Z,50.25
2023-07-03T15:24:32.675Z,50.44
2023-07-03T15:26:58.846Z,50.31
2023-07-03T15:29:25.009Z,50.34
2023-07-03T15:31:51.214Z,50.23
2023-07-03T15:34:17.465Z,50.30
2023-07-03T15:36:43.643Z,50.29
2023-07-03T15:39:09.827Z,50.37
2023-07-03T15:41:36.018Z,50.29
2023-07-03T15:44:02.251Z,50.43
2023-07-03T15:46:28.475Z,50.29
2023-07-03T15:48:54.638Z,50.30
2023-07-03T15:51:20.814Z,50.33
2023-07-03T15:53:46.967Z,50.24
2023-07-03T15:56:13.738Z,50.40
2023-07-03T15:58:40.335Z,50.31
2023-07-03T16:01:07.977Z,50.24
2023-07-03T16:03:35.256Z,50.24
2023-07-03T16:06:01.432Z,50.30
2023-07-03T16:08:27.586Z,50.26
2023-07-03T16:10:53.755Z,50.28
2023-07-03T16:13:19.968Z,50.37
2023-07-03T16:15:46.140Z,50.26
2023-07-03T16:18:12.395Z,50.39
2023-07-03T16:20:38.594Z,50.43
2023-07-03T16:23:04.792Z,50.28
2023-07-03T16:25:31.144Z,50.44
2023-07-03T16:27:57.348Z,50.29
2023-07-03T16:30:23.542Z,50.30
2023-07-03T16:32:49.712Z,50.24
2023-07-03T16:35:15.870Z,50.25
2023-07-03T16:37:42.055Z,50.37
2023-07-03T16:40:08.231Z,50.44
2023-07-03T16:42:34.403Z,50.22
2023-07-03T16:45:00.575Z,50.46
2023-07-03T16:47:26.827Z,50.29
2023-07-03T16:49:53.032Z,50.22
2023-07-03T16:52:19.190Z,50.21
2023-07-03T16:54:45.367Z,50.19
2023-07-03T16:57:11.532Z,50.29
2023-07-03T16:59:37.686Z,50.18
2023-07-03T17:02:03.966Z,50.20
2023-07-03T17:04:30.134Z,50.28
2023-07-03T17:06:56.324Z,50.30
2023-07-03T17:09:22.500Z,50.36
2023-07-03T17:11:48.665Z,50.26
2023-07-03T17:14:14.826Z,50.37
2023-07-03T17:16:41.036Z,50.23
2023-07-03T17:19:07.252Z,50.23
2023-07-03T17:21:33.427Z,50.28
2023-07-03T17:23:59.598Z,50.33
2023-07-03T17:26:25.782Z,50.33
2023-07-03T17:28:51.951Z,50.22
2023-07-03T17:31:18.157Z,50.26
2023-07-03T17:33:44.319Z,50.33
2023-07-03T17:36:10.470Z,50.50
2023-07-03T17:38:36.647Z,50.37
2023-07-03T17:41:02.814Z,50.32
2023-07-03T17:43:28.988Z,50.26
2023-07-03T17:45:55.462Z,50.38
2023-07-03T17:48:21.933Z,50.26
2023-07-03T17:50:48.207Z,50.46
2023-07-03T17:53:14.379Z,50.39
2023-07-03T17:55:40.535Z,50.30
2023-07-03T17:58:06.673Z,50.28
2023-07-03T18:00:32.914Z,50.34
2023-07-03T18:03:00.592Z,50.24
2023-07-03T18:05:26.983Z,50.52
2023-07-03T18:07:53.160Z,50.32
2023-07-03T18:10:19.298Z,50.39
2023-07-03T18:12:45.442Z,50.38
2023-07-03T18:15:11.594Z,50.26
2023-07-03T18:17:37.780Z,50.30
2023-07-03T18:20:03.957Z,50.42
2023-07-03T18:22:30.126Z,50.39
2023-07-03T18:24:56.249Z,50.30
2023-07-03T18:27:22.509Z,50.32
2023-07-03T18:29:49.179Z,50.38
2023-07-03T18:32:15.336Z,50.29
2023-07-03T18:34:41.468Z,50.38
2023-07-03T18:37:07.631Z,50.52
2023-07-03T18:39:33.847Z,50.50
2023-07-03T18:42:00.041Z,50.38
2023-07-03T18:44:26.220Z,50.45
2023-07-03T18:46:52.415Z,50.37
2023-07-03T18:49:18.577Z,50.39
2023-07-03T18:51:44.732Z,50.29
2023-07-03T18:54:10.893Z,50.55
2023-07-03T18:56:37.030Z,50.37
2023-07-03T18:59:03.201Z,50.37
2023-07-03T19:01:29.366Z,50.38
2023-07-03T19:03:55.561Z,50.39
2023-07-03T19:06:21.797Z,50.45
2023-07-03T19:08:47.985Z,50.46
2023-07-03T19:11:14.162Z,50.39
2023-07-03T19:13:40.399Z,50.39
2023-07-03T19:16:06.560Z,50.44
2023-07-03T19:18:32.809Z,50.34
2023-07-03T19:20:58.978Z,50.54
2023-07-03T19:23:25.116Z,50.46
2023-07-03T19:25:51.459Z,50.41
2023-07-03T19:28:17.827Z,50.32
2023-07-03T19:30:44.192Z,50.46
2023-07-03T19:33:10.387Z,50.32
2023-07-03T19:35:37.064Z,50.40
2023-07-03T19:38:03.217Z,50.51
2023-07-03T19:40:29.391Z,50.48
2023-07-03T19:42:55.580Z,50.27
2023-07-03T19:45:21.714Z,50.49
2023-07-03T19:47:47.931Z,50.26
2023-07-03T19:50:14.235Z,50.31
2023-07-03T19:52:40.407Z,50.53
2023-07-03T19:55:06.550Z,50.46
2023-07-03T19:57:32.765Z,50.39
2023-07-03T19:59:58.932Z,50.31
2023-07-03T20:02:25.083Z,50.54
2023-07-03T20:04:51.298Z,50.59
2023-07-03T20:07:17.489Z,50.54
2023-07-03T20:09:43.636Z,50.60
2023-07-03T20:12:09.824Z,50.52
2023-07-03T20:14:35.978Z,50.51
2023-07-03T20:17:02.237Z,50.38
2023-07-03T20:19:28.562Z,50.35
2023-07-03T20:21:54.699Z,50.34
2023-07-03T20:24:20.841Z,50.47
2023-07-03T20:26:47.011Z,50.46
2023-07-03T20:29:13.150Z,50.32
2023-07-03T20:31:39.312Z,50.32
2023-07-03T20:34:05.588Z,50.42
2023-07-03T20:36:31.759Z,50.49
2023-07-03T20:38:57.896Z,50.36
2023-07-03T20:41:24.101Z,50.41
2023-07-03T20:43:50.274Z,50.24
2023-07-03T20:46:16.542Z,50.34
2023-07-03T20:48:42.933Z,50.17
2023-07-03T20:51:09.272Z,50.35
2023-07-03T20:53:35.427Z,50.29
2023-07-03T20:56:01.577Z,50.28
2023-07-03T20:58:27.724Z,50.28
2023-07-03T21:00:53.893Z,50.11
2023-07-03T21:03:20.337Z,50.22
2023-07-03T21:05:46.539Z,50.17
2023-07-03T21:08:12.688Z,50.20
2023-07-03T21:10:38.866Z,50.21
2023-07-03T21:13:05.032Z,50.07
2023-07-03T21:15:31.264Z,50.13
2023-07-03T21:17:57.523Z,50.08
2023-07-03T21:20:23.688Z,50.06
2023-07-03T21:22:49.848Z,49.96
2023-07-03T21:25:16.027Z,50.39
2023-07-03T21:27:42.189Z,49.99
2023-07-03T21:30:08.366Z,50.05
2023-07-03T21:32:34.657Z,50.10
2023-07-03T21:35:00.892Z,49.99
2023-07-03T21:37:27.046Z,49.88
2023-07-03T21:39:53.400Z,50.13
2023-07-03T21:42:19.544Z,50.14
2023-07-03T21:44:45.684Z,50.08
2023-07-03T21:47:11.877Z,50.04
2023-07-03T21:49:38.131Z,50.03
2023-07-03T21:52:04.270Z,50.05
2023-07-03T21:54:30.487Z,49.95
2023-07-03T21:56:56.647Z,49.94
2023-07-03T21:59:22.824Z,49.89
2023-07-03T22:01:49.057Z,50.04
2023-07-03T22:04:15.253Z,50.01
2023-07-03T22:06:41.429Z,49.86
2023-07-03T22:09:07.716Z,49.80
2023-07-03T22:11:33.970Z,49.78
2023-07-03T22:14:00.370Z,50.10
2023-07-03T22:16:26.607Z,49.67
2023-07-03T22:18:52.775Z,49.68
2023-07-03T22:21:18.957Z,49.82
2023-07-03T22:23:45.154Z,49.78
2023-07-03T22:26:11.281Z,49.61
2023-07-03T22:28:37.461Z,49.83
2023-07-03T22:31:03.677Z,49.84
2023-07-03T22:33:29.820Z,49.83
2023-07-03T22:35:55.967Z,49.75
2023-07-03T22:38:22.166Z,49.55
2023-07-03T22:40:48.321Z,49.65
2023-07-03T22:43:14.490Z,49.77
2023-07-03T22:45:40.701Z,49.67
2023-07-03T22:48:06.955Z,49.67
2023-07-03T22:50:33.152Z,49.78
2023-07-03T22:52:59.341Z,49.67
2023-07-03T22:55:25.511Z,49.72
2023-07-03T22:57:51.661Z,49.63
2023-07-03T23:00:17.868Z,49.65
2023-07-03T23:02:44.077Z,49.51
2023-07-03T23:05:10.296Z,49.68
2023-07-03T23:07:36.528Z,49.60
2023-07-03T23:10:02.690Z,49.51
2023-07-03T23:12:28.836Z,49.60
2023-07-03T23:14:54.985Z,49.63
2023-07-03T23:17:21.190Z,49.56
2023-07-03T23:19:47.359Z,49.47
2023-07-03T23:22:13.527Z,49.47
2023-07-03T23:24:39.706Z,49.55
2023-07-03T23:27:05.899Z,49.42
2023-07-03T23:29:32.234Z,49.42
2023-07-03T23:31:58.386Z,49.54
2023-07-03T23:34:24.535Z,49.27
2023-07-03T23:36:50.730Z,49.47
2023-07-03T23:39:16.869Z,49.49
2023-07-03T23:41:43.012Z,49.38
2023-07-03T23:44:09.154Z,49.49
2023-07-03T23:46:35.323Z,49.29
2023-07-03T23:49:01.493Z,49.49
2023-07-03T23:51:27.764Z,49.35
2023-07-03T23:53:53.928Z,49.34
2023-07-03T23:56:20.051Z,49.38
2023-07-03T23:58:46.228Z,49.42
